sensor_id;sensor_type;location;lat;lon;timestamp;P1;P2;P0
55518;PMS5003;41724;51.176;-0.708;2022-07-29T00:01:07;6;6;
55518;PMS5003;41724;51.176;-0.708;2022-07-29T00:03:34;6;5;
55518;PMS5003;41724;51.176;-0.708;2022-07-29T00:06:01;5;5;
55518;PMS5003;41724;51.176;-0.708;2022-07-29T00:08:29;6;5;
55518;PMS5003;41724;51.176;-0.708;2022-07-29T00:10:56;5;5;
55518;PMS5003;41724;51.176;-0.708;2022-07-29T00:13:23;7;7;
55518;PMS5003;41724;51.176;-0.708;2022-07-29T00:15:51;7;7;
55518;PMS5003;41724;51.176;-0.708;2022-07-29T00:18:18;7;5;
55518;PMS5003;41724;51.176;-0.708;2022-07-29T00:20:45;6;5;
55518;PMS5003;41724;51.176;-0.708;2022-07-29T00:23:12;7;6;
55518;PMS5003;41724;51.176;-0.708;2022-07-29T00:25:40;8;8;
55518;PMS5003;41724;51.176;-0.708;2022-07-29T00:28:07;5;5;
55518;PMS5003;41724;51.176;-0.708;2022-07-29T00:30:34;8;8;
55518;PMS5003;41724;51.176;-0.708;2022-07-29T00:33:02;6;6;
55518;PMS5003;41724;51.176;-0.708;2022-07-29T00:35:29;10;8;
55518;PMS5003;41724;51.176;-0.708;2022-07-29T00:37:57;8;8;
55518;PMS5003;41724;51.176;-0.708;2022-07-29T00:40:24;5;5;
55518;PMS5003;41724;51.176;-0.708;2022-07-29T00:42:52;8;6;
55518;PMS5003;41724;51.176;-0.708;2022-07-29T00:45:19;7;7;
55518;PMS5003;41724;51.176;-0.708;2022-07-29T00:47:46;7;6;
55518;PMS5003;41724;51.176;-0.708;2022-07-29T00:50:13;9;8;
55518;PMS5003;41724;51.176;-0.708;2022-07-29T00:52:41;5;5;
55518;PMS5003;41724;51.176;-0.708;2022-07-29T00:55:10;7;7;
55518;PMS5003;41724;51.176;-0.708;2022-07-29T00:57:39;7;7;
55518;PMS5003;41724;51.176;-0.708;2022-07-29T01:00:09;7;6;
55518;PMS5003;41724;51.176;-0.708;2022-07-29T01:02:40;7;7;
55518;PMS5003;41724;51.176;-0.708;2022-07-29T01:05:08;6;6;
55518;PMS5003;41724;51.176;-0.708;2022-07-29T01:07:37;7;7;
55518;PMS5003;41724;51.176;-0.708;2022-07-29T01:10:06;5;5;
55518;PMS5003;41724;51.176;-0.708;2022-07-29T01:12:36;9;8;
55518;PMS5003;41724;51.176;-0.708;2022-07-29T01:15:07;8;7;
55518;PMS5003;41724;51.176;-0.708;2022-07-29T01:17:36;9;7;
55518;PMS5003;41724;51.176;-0.708;2022-07-29T01:20:11;8;8;
55518;PMS5003;41724;51.176;-0.708;2022-07-29T01:23:03;7;7;
55518;PMS5003;41724;51.176;-0.708;2022-07-29T01:25:54;8;8;
55518;PMS5003;41724;51.176;-0.708;2022-07-29T01:28:36;12;9;
55518;PMS5003;41724;51.176;-0.708;2022-07-29T01:31:11;6;6;
55518;PMS5003;41724;51.176;-0.708;2022-07-29T01:33:43;13;10;
55518;PMS5003;41724;51.176;-0.708;2022-07-29T01:36:17;9;9;
55518;PMS5003;41724;51.176;-0.708;2022-07-29T01:38:52;7;7;
55518;PMS5003;41724;51.176;-0.708;2022-07-29T01:41:24;13;11;
55518;PMS5003;41724;51.176;-0.708;2022-07-29T01:43:56;13;9;
55518;PMS5003;41724;51.176;-0.708;2022-07-29T01:46:29;9;9;
55518;PMS5003;41724;51.176;-0.708;2022-07-29T01:49:03;10;10;
55518;PMS5003;41724;51.176;-0.708;2022-07-29T01:51:40;8;8;
55518;PMS5003;41724;51.176;-0.708;2022-07-29T01:54:16;10;10;
55518;PMS5003;41724;51.176;-0.708;2022-07-29T01:56:50;8;7;
55518;PMS5003;41724;51.176;-0.708;2022-07-29T01:59:19;16;11;
55518;PMS5003;41724;51.176;-0.708;2022-07-29T02:01:48;10;10;
55518;PMS5003;41724;51.176;-0.708;2022-07-29T02:04:19;16;10;
55518;PMS5003;41724;51.176;-0.708;2022-07-29T02:06:48;14;13;
55518;PMS5003;41724;51.176;-0.708;2022-07-29T02:09:19;13;11;
55518;PMS5003;41724;51.176;-0.708;2022-07-29T02:11:49;14;14;
55518;PMS5003;41724;51.176;-0.708;2022-07-29T02:14:20;10;10;
55518;PMS5003;41724;51.176;-0.708;2022-07-29T02:16:50;19;16;
55518;PMS5003;41724;51.176;-0.708;2022-07-29T02:19:21;15;14;
55518;PMS5003;41724;51.176;-0.708;2022-07-29T02:21:51;13;13;
55518;PMS5003;41724;51.176;-0.708;2022-07-29T02:24:21;13;13;
55518;PMS5003;41724;51.176;-0.708;2022-07-29T02:26:51;15;13;
55518;PMS5003;41724;51.176;-0.708;2022-07-29T02:29:22;24;18;
55518;PMS5003;41724;51.176;-0.708;2022-07-29T02:31:51;18;18;
55518;PMS5003;41724;51.176;-0.708;2022-07-29T02:34:20;25;24;
55518;PMS5003;41724;51.176;-0.708;2022-07-29T02:36:48;22;22;
55518;PMS5003;41724;51.176;-0.708;2022-07-29T02:39:17;20;19;
55518;PMS5003;41724;51.176;-0.708;2022-07-29T02:41:47;24;20;
55518;PMS5003;41724;51.176;-0.708;2022-07-29T02:44:16;25;24;
55518;PMS5003;41724;51.176;-0.708;2022-07-29T02:46:49;34;29;
55518;PMS5003;41724;51.176;-0.708;2022-07-29T02:49:25;31;30;
55518;PMS5003;41724;51.176;-0.708;2022-07-29T02:52:00;30;25;
55518;PMS5003;41724;51.176;-0.708;2022-07-29T02:54:36;27;25;
55518;PMS5003;41724;51.176;-0.708;2022-07-29T02:57:08;30;28;
55518;PMS5003;41724;51.176;-0.708;2022-07-29T02:59:40;34;29;
55518;PMS5003;41724;51.176;-0.708;2022-07-29T03:02:09;20;18;
55518;PMS5003;41724;51.176;-0.708;2022-07-29T03:04:38;18;18;
55518;PMS5003;41724;51.176;-0.708;2022-07-29T03:07:08;21;20;
55518;PMS5003;41724;51.176;-0.708;2022-07-29T03:09:37;18;18;
55518;PMS5003;41724;51.176;-0.708;2022-07-29T03:12:06;25;20;
55518;PMS5003;41724;51.176;-0.708;2022-07-29T03:14:34;17;14;
55518;PMS5003;41724;51.176;-0.708;2022-07-29T03:17:02;18;15;
55518;PMS5003;41724;51.176;-0.708;2022-07-29T03:19:30;26;20;
55518;PMS5003;41724;51.176;-0.708;2022-07-29T03:21:58;22;18;
55518;PMS5003;41724;51.176;-0.708;2022-07-29T03:24:28;21;20;
55518;PMS5003;41724;51.176;-0.708;2022-07-29T03:26:57;21;20;
55518;PMS5003;41724;51.176;-0.708;2022-07-29T03:29:25;22;19;
55518;PMS5003;41724;51.176;-0.708;2022-07-29T03:31:53;19;18;
55518;PMS5003;41724;51.176;-0.708;2022-07-29T03:34:21;20;20;
55518;PMS5003;41724;51.176;-0.708;2022-07-29T03:36:49;20;15;
55518;PMS5003;41724;51.176;-0.708;2022-07-29T03:39:17;16;14;
55518;PMS5003;41724;51.176;-0.708;2022-07-29T03:41:49;20;15;
55518;PMS5003;41724;51.176;-0.708;2022-07-29T03:44:20;13;13;
55518;PMS5003;41724;51.176;-0.708;2022-07-29T03:46:49;14;13;
55518;PMS5003;41724;51.176;-0.708;2022-07-29T03:49:18;20;18;
55518;PMS5003;41724;51.176;-0.708;2022-07-29T03:51:48;20;18;
55518;PMS5003;41724;51.176;-0.708;2022-07-29T03:54:16;26;23;
55518;PMS5003;41724;51.176;-0.708;2022-07-29T03:56:44;22;20;
55518;PMS5003;41724;51.176;-0.708;2022-07-29T03:59:15;28;26;
55518;PMS5003;41724;51.176;-0.708;2022-07-29T04:01:43;23;21;
55518;PMS5003;41724;51.176;-0.708;2022-07-29T04:04:12;16;16;
55518;PMS5003;41724;51.176;-0.708;2022-07-29T04:06:40;23;20;
55518;PMS5003;41724;51.176;-0.708;2022-07-29T04:09:09;26;20;
55518;PMS5003;41724;51.176;-0.708;2022-07-29T04:11:38;22;20;
55518;PMS5003;41724;51.176;-0.708;2022-07-29T04:14:06;18;17;
55518;PMS5003;41724;51.176;-0.708;2022-07-29T04:16:33;30;21;
55518;PMS5003;41724;51.176;-0.708;2022-07-29T04:19:00;21;19;
55518;PMS5003;41724;51.176;-0.708;2022-07-29T04:21:27;28;24;
55518;PMS5003;41724;51.176;-0.708;2022-07-29T04:23:54;24;21;
55518;PMS5003;41724;51.176;-0.708;2022-07-29T04:26:22;25;22;
55518;PMS5003;41724;51.176;-0.708;2022-07-29T04:28:49;19;16;
55518;PMS5003;41724;51.176;-0.708;2022-07-29T04:31:17;22;20;
55518;PMS5003;41724;51.176;-0.708;2022-07-29T04:33:44;23;20;
55518;PMS5003;41724;51.176;-0.708;2022-07-29T04:36:12;20;18;
55518;PMS5003;41724;51.176;-0.708;2022-07-29T04:38:39;23;21;
55518;PMS5003;41724;51.176;-0.708;2022-07-29T04:41:06;18;17;
55518;PMS5003;41724;51.176;-0.708;2022-07-29T04:43:33;24;21;
55518;PMS5003;41724;51.176;-0.708;2022-07-29T04:46:00;30;24;
55518;PMS5003;41724;51.176;-0.708;2022-07-29T04:48:29;29;25;
55518;PMS5003;41724;51.176;-0.708;2022-07-29T04:50:56;26;23;
55518;PMS5003;41724;51.176;-0.708;2022-07-29T04:53:24;26;26;
55518;PMS5003;41724;51.176;-0.708;2022-07-29T04:55:52;32;27;
55518;PMS5003;41724;51.176;-0.708;2022-07-29T04:58:19;30;25;
55518;PMS5003;41724;51.176;-0.708;2022-07-29T05:00:46;38;32;
55518;PMS5003;41724;51.176;-0.708;2022-07-29T05:03:13;27;24;
55518;PMS5003;41724;51.176;-0.708;2022-07-29T05:05:40;29;28;
55518;PMS5003;41724;51.176;-0.708;2022-07-29T05:08:08;35;30;
55518;PMS5003;41724;51.176;-0.708;2022-07-29T05:10:35;29;26;
55518;PMS5003;41724;51.176;-0.708;2022-07-29T05:13:03;28;25;
55518;PMS5003;41724;51.176;-0.708;2022-07-29T05:15:30;29;26;
55518;PMS5003;41724;51.176;-0.708;2022-07-29T05:17:57;32;30;
55518;PMS5003;41724;51.176;-0.708;2022-07-29T05:20:25;31;29;
55518;PMS5003;41724;51.176;-0.708;2022-07-29T05:22:52;31;29;
55518;PMS5003;41724;51.176;-0.708;2022-07-29T05:25:19;40;34;
55518;PMS5003;41724;51.176;-0.708;2022-07-29T05:27:47;29;25;
55518;PMS5003;41724;51.176;-0.708;2022-07-29T05:30:13;28;24;
55518;PMS5003;41724;51.176;-0.708;2022-07-29T05:32:41;28;24;
55518;PMS5003;41724;51.176;-0.708;2022-07-29T05:35:08;30;25;
55518;PMS5003;41724;51.176;-0.708;2022-07-29T05:37:36;29;25;
55518;PMS5003;41724;51.176;-0.708;2022-07-29T05:40:04;26;25;
55518;PMS5003;41724;51.176;-0.708;2022-07-29T05:42:33;22;19;
55518;PMS5003;41724;51.176;-0.708;2022-07-29T05:45:00;35;23;
55518;PMS5003;41724;51.176;-0.708;2022-07-29T05:47:28;22;21;
55518;PMS5003;41724;51.176;-0.708;2022-07-29T05:49:56;26;23;
55518;PMS5003;41724;51.176;-0.708;2022-07-29T05:52:23;18;18;
55518;PMS5003;41724;51.176;-0.708;2022-07-29T05:54:50;23;21;
55518;PMS5003;41724;51.176;-0.708;2022-07-29T05:57:17;22;18;
55518;PMS5003;41724;51.176;-0.708;2022-07-29T05:59:46;23;22;
55518;PMS5003;41724;51.176;-0.708;2022-07-29T06:02:13;20;18;
55518;PMS5003;41724;51.176;-0.708;2022-07-29T06:04:42;21;19;
55518;PMS5003;41724;51.176;-0.708;2022-07-29T06:07:10;23;20;
55518;PMS5003;41724;51.176;-0.708;2022-07-29T06:09:37;18;14;
55518;PMS5003;41724;51.176;-0.708;2022-07-29T06:12:04;20;18;
55518;PMS5003;41724;51.176;-0.708;2022-07-29T06:14:31;19;18;
55518;PMS5003;41724;51.176;-0.708;2022-07-29T06:16:59;22;17;
55518;PMS5003;41724;51.176;-0.708;2022-07-29T06:19:26;18;16;
55518;PMS5003;41724;51.176;-0.708;2022-07-29T06:21:53;14;14;
55518;PMS5003;41724;51.176;-0.708;2022-07-29T06:24:21;21;16;
55518;PMS5003;41724;51.176;-0.708;2022-07-29T06:26:48;20;17;
55518;PMS5003;41724;51.176;-0.708;2022-07-29T06:29:15;20;18;
55518;PMS5003;41724;51.176;-0.708;2022-07-29T06:31:42;18;15;
55518;PMS5003;41724;51.176;-0.708;2022-07-29T06:34:09;18;17;
55518;PMS5003;41724;51.176;-0.708;2022-07-29T06:36:37;20;14;
55518;PMS5003;41724;51.176;-0.708;2022-07-29T06:39:05;15;13;
55518;PMS5003;41724;51.176;-0.708;2022-07-29T06:41:32;16;14;
55518;PMS5003;41724;51.176;-0.708;2022-07-29T06:44:00;14;11;
55518;PMS5003;41724;51.176;-0.708;2022-07-29T06:46:28;14;12;
55518;PMS5003;41724;51.176;-0.708;2022-07-29T06:48:55;15;13;
55518;PMS5003;41724;51.176;-0.708;2022-07-29T06:51:22;15;13;
55518;PMS5003;41724;51.176;-0.708;2022-07-29T06:53:49;12;12;
55518;PMS5003;41724;51.176;-0.708;2022-07-29T06:56:17;12;12;
55518;PMS5003;41724;51.176;-0.708;2022-07-29T06:58:45;13;13;
55518;PMS5003;41724;51.176;-0.708;2022-07-29T07:01:12;11;11;
55518;PMS5003;41724;51.176;-0.708;2022-07-29T07:03:39;10;10;
55518;PMS5003;41724;51.176;-0.708;2022-07-29T07:06:07;13;10;
55518;PMS5003;41724;51.176;-0.708;2022-07-29T07:08:34;13;12;
55518;PMS5003;41724;51.176;-0.708;2022-07-29T07:11:01;13;9;
55518;PMS5003;41724;51.176;-0.708;2022-07-29T07:13:28;6;6;
55518;PMS5003;41724;51.176;-0.708;2022-07-29T07:15:55;10;10;
55518;PMS5003;41724;51.176;-0.708;2022-07-29T07:18:23;10;8;
55518;PMS5003;41724;51.176;-0.708;2022-07-29T07:20:50;7;7;
55518;PMS5003;41724;51.176;-0.708;2022-07-29T07:23:18;8;6;
55518;PMS5003;41724;51.176;-0.708;2022-07-29T07:25:45;8;7;
55518;PMS5003;41724;51.176;-0.708;2022-07-29T07:28:13;6;6;
55518;PMS5003;41724;51.176;-0.708;2022-07-29T07:30:40;6;6;
55518;PMS5003;41724;51.176;-0.708;2022-07-29T07:33:07;6;5;
55518;PMS5003;41724;51.176;-0.708;2022-07-29T07:35:35;6;6;
55518;PMS5003;41724;51.176;-0.708;2022-07-29T07:38:02;7;7;
55518;PMS5003;41724;51.176;-0.708;2022-07-29T07:40:29;7;6;
55518;PMS5003;41724;51.176;-0.708;2022-07-29T07:42:56;7;6;
55518;PMS5003;41724;51.176;-0.708;2022-07-29T07:45:29;7;5;
55518;PMS5003;41724;51.176;-0.708;2022-07-29T07:47:56;5;4;
55518;PMS5003;41724;51.176;-0.708;2022-07-29T07:50:23;9;6;
55518;PMS5003;41724;51.176;-0.708;2022-07-29T07:52:51;6;6;
55518;PMS5003;41724;51.176;-0.708;2022-07-29T07:55:21;8;7;
55518;PMS5003;41724;51.176;-0.708;2022-07-29T07:57:48;8;6;
55518;PMS5003;41724;51.176;-0.708;2022-07-29T08:00:16;6;5;
55518;PMS5003;41724;51.176;-0.708;2022-07-29T08:02:43;3;3;
55518;PMS5003;41724;51.176;-0.708;2022-07-29T08:05:11;9;7;
55518;PMS5003;41724;51.176;-0.708;2022-07-29T08:07:39;5;5;
55518;PMS5003;41724;51.176;-0.708;2022-07-29T08:10:06;3;3;
55518;PMS5003;41724;51.176;-0.708;2022-07-29T08:12:34;8;5;
55518;PMS5003;41724;51.176;-0.708;2022-07-29T08:15:01;6;6;
55518;PMS5003;41724;51.176;-0.708;2022-07-29T08:17:29;4;4;
55518;PMS5003;41724;51.176;-0.708;2022-07-29T08:19:56;4;3;
55518;PMS5003;41724;51.176;-0.708;2022-07-29T08:22:23;6;5;
55518;PMS5003;41724;51.176;-0.708;2022-07-29T08:24:51;4;4;
55518;PMS5003;41724;51.176;-0.708;2022-07-29T08:27:18;5;5;
55518;PMS5003;41724;51.176;-0.708;2022-07-29T08:29:45;4;4;
55518;PMS5003;41724;51.176;-0.708;2022-07-29T08:32:12;3;3;
55518;PMS5003;41724;51.176;-0.708;2022-07-29T08:34:39;2;2;
55518;PMS5003;41724;51.176;-0.708;2022-07-29T08:37:07;2;2;
55518;PMS5003;41724;51.176;-0.708;2022-07-29T08:39:34;2;2;
55518;PMS5003;41724;51.176;-0.708;2022-07-29T08:42:02;3;3;
55518;PMS5003;41724;51.176;-0.708;2022-07-29T08:44:29;4;3;
55518;PMS5003;41724;51.176;-0.708;2022-07-29T08:46:58;2;2;
55518;PMS5003;41724;51.176;-0.708;2022-07-29T08:49:26;6;4;
55518;PMS5003;41724;51.176;-0.708;2022-07-29T08:51:53;3;3;
55518;PMS5003;41724;51.176;-0.708;2022-07-29T08:54:21;3;3;
55518;PMS5003;41724;51.176;-0.708;2022-07-29T08:56:50;5;3;
55518;PMS5003;41724;51.176;-0.708;2022-07-29T08:59:18;2;2;
55518;PMS5003;41724;51.176;-0.708;2022-07-29T09:01:48;3;3;
55518;PMS5003;41724;51.176;-0.708;2022-07-29T09:04:19;5;4;
55518;PMS5003;41724;51.176;-0.708;2022-07-29T09:06:48;2;2;
55518;PMS5003;41724;51.176;-0.708;2022-07-29T09:09:19;3;3;
55518;PMS5003;41724;51.176;-0.708;2022-07-29T09:11:46;3;3;
55518;PMS5003;41724;51.176;-0.708;2022-07-29T09:14:13;2;2;
55518;PMS5003;41724;51.176;-0.708;2022-07-29T09:16:45;3;2;
55518;PMS5003;41724;51.176;-0.708;2022-07-29T09:19:19;4;4;
55518;PMS5003;41724;51.176;-0.708;2022-07-29T09:21:49;3;3;
55518;PMS5003;41724;51.176;-0.708;2022-07-29T09:24:16;2;2;
55518;PMS5003;41724;51.176;-0.708;2022-07-29T09:26:44;2;2;
55518;PMS5003;41724;51.176;-0.708;2022-07-29T09:29:12;5;3;
55518;PMS5003;41724;51.176;-0.708;2022-07-29T09:31:41;2;2;
55518;PMS5003;41724;51.176;-0.708;2022-07-29T09:34:11;4;4;
55518;PMS5003;41724;51.176;-0.708;2022-07-29T09:36:40;3;3;
55518;PMS5003;41724;51.176;-0.708;2022-07-29T09:39:07;3;3;
55518;PMS5003;41724;51.176;-0.708;2022-07-29T09:41:50;2;2;
55518;PMS5003;41724;51.176;-0.708;2022-07-29T09:44:19;4;3;
55518;PMS5003;41724;51.176;-0.708;2022-07-29T09:47:03;3;3;
55518;PMS5003;41724;51.176;-0.708;2022-07-29T09:49:31;3;3;
55518;PMS5003;41724;51.176;-0.708;2022-07-29T09:52:03;3;3;
55518;PMS5003;41724;51.176;-0.708;2022-07-29T09:54:32;2;2;
55518;PMS5003;41724;51.176;-0.708;2022-07-29T09:56:59;4;2;
55518;PMS5003;41724;51.176;-0.708;2022-07-29T09:59:27;3;3;
55518;PMS5003;41724;51.176;-0.708;2022-07-29T10:01:54;4;4;
55518;PMS5003;41724;51.176;-0.708;2022-07-29T10:04:21;2;2;
55518;PMS5003;41724;51.176;-0.708;2022-07-29T10:06:56;1;1;
55518;PMS5003;41724;51.176;-0.708;2022-07-29T10:09:25;5;4;
55518;PMS5003;41724;51.176;-0.708;2022-07-29T10:12:04;3;3;
55518;PMS5003;41724;51.176;-0.708;2022-07-29T10:14:33;5;4;
55518;PMS5003;41724;51.176;-0.708;2022-07-29T10:17:02;4;4;
55518;PMS5003;41724;51.176;-0.708;2022-07-29T10:19:31;3;3;
55518;PMS5003;41724;51.176;-0.708;2022-07-29T10:22:00;4;4;
55518;PMS5003;41724;51.176;-0.708;2022-07-29T10:24:30;4;3;
55518;PMS5003;41724;51.176;-0.708;2022-07-29T10:26:59;4;4;
55518;PMS5003;41724;51.176;-0.708;2022-07-29T10:29:28;4;4;
55518;PMS5003;41724;51.176;-0.708;2022-07-29T10:32:02;4;4;
55518;PMS5003;41724;51.176;-0.708;2022-07-29T10:34:44;5;4;
55518;PMS5003;41724;51.176;-0.708;2022-07-29T10:37:26;4;4;
55518;PMS5003;41724;51.176;-0.708;2022-07-29T10:40:06;6;6;
55518;PMS5003;41724;51.176;-0.708;2022-07-29T10:42:41;4;4;
55518;PMS5003;41724;51.176;-0.708;2022-07-29T10:45:08;5;5;
55518;PMS5003;41724;51.176;-0.708;2022-07-29T10:47:36;3;3;
55518;PMS5003;41724;51.176;-0.708;2022-07-29T10:50:04;5;5;
55518;PMS5003;41724;51.176;-0.708;2022-07-29T10:53:05;5;5;
55518;PMS5003;41724;51.176;-0.708;2022-07-29T10:55:34;5;3;
55518;PMS5003;41724;51.176;-0.708;2022-07-29T10:58:18;6;5;
55518;PMS5003;41724;51.176;-0.708;2022-07-29T11:00:47;4;4;
55518;PMS5003;41724;51.176;-0.708;2022-07-29T11:03:53;4;4;
55518;PMS5003;41724;51.176;-0.708;2022-07-29T11:06:20;5;4;
55518;PMS5003;41724;51.176;-0.708;2022-07-29T11:08:47;7;4;
55518;PMS5003;41724;51.176;-0.708;2022-07-29T11:11:42;3;3;
55518;PMS5003;41724;51.176;-0.708;2022-07-29T11:14:10;4;4;
55518;PMS5003;41724;51.176;-0.708;2022-07-29T11:17:09;4;4;
55518;PMS5003;41724;51.176;-0.708;2022-07-29T11:19:36;6;6;
55518;PMS5003;41724;51.176;-0.708;2022-07-29T11:22:03;7;7;
55518;PMS5003;41724;51.176;-0.708;2022-07-29T11:24:35;4;4;
55518;PMS5003;41724;51.176;-0.708;2022-07-29T11:27:06;4;4;
55518;PMS5003;41724;51.176;-0.708;2022-07-29T11:29:35;4;4;
55518;PMS5003;41724;51.176;-0.708;2022-07-29T11:32:09;5;5;
55518;PMS5003;41724;51.176;-0.708;2022-07-29T11:34:38;5;5;
55518;PMS5003;41724;51.176;-0.708;2022-07-29T11:37:14;5;4;
55518;PMS5003;41724;51.176;-0.708;2022-07-29T11:40:08;6;6;
55518;PMS5003;41724;51.176;-0.708;2022-07-29T11:42:38;4;4;
55518;PMS5003;41724;51.176;-0.708;2022-07-29T11:45:07;4;4;
55518;PMS5003;41724;51.176;-0.708;2022-07-29T11:47:36;4;4;
55518;PMS5003;41724;51.176;-0.708;2022-07-29T11:50:06;4;4;
55518;PMS5003;41724;51.176;-0.708;2022-07-29T11:52:35;6;6;
55518;PMS5003;41724;51.176;-0.708;2022-07-29T11:55:04;5;5;
55518;PMS5003;41724;51.176;-0.708;2022-07-29T11:57:32;5;5;
55518;PMS5003;41724;51.176;-0.708;2022-07-29T12:00:01;5;5;
55518;PMS5003;41724;51.176;-0.708;2022-07-29T12:02:38;7;6;
55518;PMS5003;41724;51.176;-0.708;2022-07-29T12:05:06;5;5;
55518;PMS5003;41724;51.176;-0.708;2022-07-29T12:07:34;7;6;
55518;PMS5003;41724;51.176;-0.708;2022-07-29T12:10:02;5;3;
55518;PMS5003;41724;51.176;-0.708;2022-07-29T12:12:31;7;6;
55518;PMS5003;41724;51.176;-0.708;2022-07-29T12:14:58;6;6;
55518;PMS5003;41724;51.176;-0.708;2022-07-29T12:17:37;5;5;
55518;PMS5003;41724;51.176;-0.708;2022-07-29T12:20:05;5;5;
55518;PMS5003;41724;51.176;-0.708;2022-07-29T12:22:33;5;4;
55518;PMS5003;41724;51.176;-0.708;2022-07-29T12:25:02;5;5;
55518;PMS5003;41724;51.176;-0.708;2022-07-29T12:27:31;7;7;
55518;PMS5003;41724;51.176;-0.708;2022-07-29T12:30:00;5;5;
55518;PMS5003;41724;51.176;-0.708;2022-07-29T12:32:31;5;5;
55518;PMS5003;41724;51.176;-0.708;2022-07-29T12:34:59;6;6;
55518;PMS5003;41724;51.176;-0.708;2022-07-29T12:37:29;6;5;
55518;PMS5003;41724;51.176;-0.708;2022-07-29T12:39:56;8;7;
55518;PMS5003;41724;51.176;-0.708;2022-07-29T12:42:23;5;5;
55518;PMS5003;41724;51.176;-0.708;2022-07-29T12:44:51;4;4;
55518;PMS5003;41724;51.176;-0.708;2022-07-29T12:47:19;6;6;
55518;PMS5003;41724;51.176;-0.708;2022-07-29T12:49:46;6;6;
55518;PMS5003;41724;51.176;-0.708;2022-07-29T12:52:31;4;4;
55518;PMS5003;41724;51.176;-0.708;2022-07-29T12:54:59;3;3;
55518;PMS5003;41724;51.176;-0.708;2022-07-29T12:57:26;5;5;
55518;PMS5003;41724;51.176;-0.708;2022-07-29T12:59:59;7;6;
55518;PMS5003;41724;51.176;-0.708;2022-07-29T13:02:29;5;5;
55518;PMS5003;41724;51.176;-0.708;2022-07-29T13:04:57;6;6;
55518;PMS5003;41724;51.176;-0.708;2022-07-29T13:07:26;7;5;
55518;PMS5003;41724;51.176;-0.708;2022-07-29T13:09:55;5;5;
55518;PMS5003;41724;51.176;-0.708;2022-07-29T13:12:37;6;4;
55518;PMS5003;41724;51.176;-0.708;2022-07-29T13:15:12;5;5;
55518;PMS5003;41724;51.176;-0.708;2022-07-29T13:17:41;6;5;
55518;PMS5003;41724;51.176;-0.708;2022-07-29T13:20:10;4;4;
55518;PMS5003;41724;51.176;-0.708;2022-07-29T13:22:38;4;4;
55518;PMS5003;41724;51.176;-0.708;2022-07-29T13:25:06;5;4;
55518;PMS5003;41724;51.176;-0.708;2022-07-29T13:27:34;5;4;
55518;PMS5003;41724;51.176;-0.708;2022-07-29T13:30:03;4;4;
55518;PMS5003;41724;51.176;-0.708;2022-07-29T13:32:32;3;3;
55518;PMS5003;41724;51.176;-0.708;2022-07-29T13:35:01;4;2;
55518;PMS5003;41724;51.176;-0.708;2022-07-29T13:37:30;2;2;
55518;PMS5003;41724;51.176;-0.708;2022-07-29T13:39:58;4;4;
55518;PMS5003;41724;51.176;-0.708;2022-07-29T13:42:25;4;4;
55518;PMS5003;41724;51.176;-0.708;2022-07-29T13:44:52;5;5;
55518;PMS5003;41724;51.176;-0.708;2022-07-29T13:47:19;4;4;
55518;PMS5003;41724;51.176;-0.708;2022-07-29T13:49:47;4;4;
55518;PMS5003;41724;51.176;-0.708;2022-07-29T13:52:14;6;4;
55518;PMS5003;41724;51.176;-0.708;2022-07-29T13:54:41;4;4;
55518;PMS5003;41724;51.176;-0.708;2022-07-29T13:57:09;3;3;
55518;PMS5003;41724;51.176;-0.708;2022-07-29T13:59:37;4;4;
55518;PMS5003;41724;51.176;-0.708;2022-07-29T14:02:04;3;3;
55518;PMS5003;41724;51.176;-0.708;2022-07-29T14:04:31;4;4;
55518;PMS5003;41724;51.176;-0.708;2022-07-29T14:07:00;5;5;
55518;PMS5003;41724;51.176;-0.708;2022-07-29T14:09:28;7;5;
55518;PMS5003;41724;51.176;-0.708;2022-07-29T14:11:57;3;3;
55518;PMS5003;41724;51.176;-0.708;2022-07-29T14:14:24;6;4;
55518;PMS5003;41724;51.176;-0.708;2022-07-29T14:16:51;3;3;
55518;PMS5003;41724;51.176;-0.708;2022-07-29T14:19:19;3;3;
55518;PMS5003;41724;51.176;-0.708;2022-07-29T14:21:46;4;4;
55518;PMS5003;41724;51.176;-0.708;2022-07-29T14:24:13;5;5;
55518;PMS5003;41724;51.176;-0.708;2022-07-29T14:26:40;4;4;
55518;PMS5003;41724;51.176;-0.708;2022-07-29T14:29:08;4;4;
55518;PMS5003;41724;51.176;-0.708;2022-07-29T14:31:35;5;5;
55518;PMS5003;41724;51.176;-0.708;2022-07-29T14:34:02;5;5;
55518;PMS5003;41724;51.176;-0.708;2022-07-29T14:36:29;4;4;
55518;PMS5003;41724;51.176;-0.708;2022-07-29T14:38:57;5;4;
55518;PMS5003;41724;51.176;-0.708;2022-07-29T14:41:24;5;5;
55518;PMS5003;41724;51.176;-0.708;2022-07-29T14:43:51;4;4;
55518;PMS5003;41724;51.176;-0.708;2022-07-29T14:46:19;5;5;
55518;PMS5003;41724;51.176;-0.708;2022-07-29T14:48:48;4;4;
55518;PMS5003;41724;51.176;-0.708;2022-07-29T14:51:15;5;5;
55518;PMS5003;41724;51.176;-0.708;2022-07-29T14:53:43;5;5;
55518;PMS5003;41724;51.176;-0.708;2022-07-29T14:56:10;5;4;
55518;PMS5003;41724;51.176;-0.708;2022-07-29T14:58:37;4;4;
55518;PMS5003;41724;51.176;-0.708;2022-07-29T15:01:05;4;4;
55518;PMS5003;41724;51.176;-0.708;2022-07-29T15:03:32;4;4;
55518;PMS5003;41724;51.176;-0.708;2022-07-29T15:05:59;3;3;
55518;PMS5003;41724;51.176;-0.708;2022-07-29T15:08:27;5;5;
55518;PMS5003;41724;51.176;-0.708;2022-07-29T15:10:55;3;3;
55518;PMS5003;41724;51.176;-0.708;2022-07-29T15:13:22;5;5;
55518;PMS5003;41724;51.176;-0.708;2022-07-29T15:15:49;7;5;
55518;PMS5003;41724;51.176;-0.708;2022-07-29T15:18:18;4;4;
55518;PMS5003;41724;51.176;-0.708;2022-07-29T15:20:46;6;5;
55518;PMS5003;41724;51.176;-0.708;2022-07-29T15:23:13;5;4;
55518;PMS5003;41724;51.176;-0.708;2022-07-29T15:25:40;4;4;
55518;PMS5003;41724;51.176;-0.708;2022-07-29T15:28:08;4;4;
55518;PMS5003;41724;51.176;-0.708;2022-07-29T15:30:35;5;5;
55518;PMS5003;41724;51.176;-0.708;2022-07-29T15:33:02;5;5;
55518;PMS5003;41724;51.176;-0.708;2022-07-29T15:35:29;5;3;
55518;PMS5003;41724;51.176;-0.708;2022-07-29T15:37:57;6;5;
55518;PMS5003;41724;51.176;-0.708;2022-07-29T15:40:24;4;4;
55518;PMS5003;41724;51.176;-0.708;2022-07-29T15:42:51;5;5;
55518;PMS5003;41724;51.176;-0.708;2022-07-29T15:45:19;6;4;
55518;PMS5003;41724;51.176;-0.708;2022-07-29T15:47:47;5;5;
55518;PMS5003;41724;51.176;-0.708;2022-07-29T15:50:14;4;4;
55518;PMS5003;41724;51.176;-0.708;2022-07-29T15:52:41;5;5;
55518;PMS5003;41724;51.176;-0.708;2022-07-29T15:55:08;4;4;
55518;PMS5003;41724;51.176;-0.708;2022-07-29T15:57:36;5;5;
55518;PMS5003;41724;51.176;-0.708;2022-07-29T16:00:03;4;4;
55518;PMS5003;41724;51.176;-0.708;2022-07-29T16:02:31;4;4;
55518;PMS5003;41724;51.176;-0.708;2022-07-29T16:04:58;5;5;
55518;PMS5003;41724;51.176;-0.708;2022-07-29T16:07:26;6;4;
55518;PMS5003;41724;51.176;-0.708;2022-07-29T16:09:53;3;3;
55518;PMS5003;41724;51.176;-0.708;2022-07-29T16:12:20;4;4;
55518;PMS5003;41724;51.176;-0.708;2022-07-29T16:14:47;5;4;
55518;PMS5003;41724;51.176;-0.708;2022-07-29T16:17:15;4;4;
55518;PMS5003;41724;51.176;-0.708;2022-07-29T16:19:42;6;5;
55518;PMS5003;41724;51.176;-0.708;2022-07-29T16:22:10;4;3;
55518;PMS5003;41724;51.176;-0.708;2022-07-29T16:24:37;6;6;
55518;PMS5003;41724;51.176;-0.708;2022-07-29T16:27:05;4;4;
55518;PMS5003;41724;51.176;-0.708;2022-07-29T16:29:32;3;3;
55518;PMS5003;41724;51.176;-0.708;2022-07-29T16:31:59;5;5;
55518;PMS5003;41724;51.176;-0.708;2022-07-29T16:34:26;6;6;
55518;PMS5003;41724;51.176;-0.708;2022-07-29T16:36:54;5;5;